EGBBEGAC

Guest
Details From EGBB - Birmingham
To EGAC - Belfast City
Flight Number -
Tags Generated
Created
Modified
Stats Distance 196 nm / 363 km
Max Altitude 0 ft / 0 m
Waypoints 2
Social Downloads 1
Likes 0
Share VATSIM

Download

Looking for another format? Having issues loading an existing format? Contact us
Advertisement - Login to hide

Notes

Generated

Route

EGBB EGAC

ID Type Via Altitude Latitude Longitude Leg Dist Tot Dist Heading (true) Name
O EGBB APT - 0 ft / 0 m 52.45113˚ -1.75493˚ - 0 nm - -
O EGAC APT - 0 ft / 0 m 54.61136˚ -5.88072˚ 196 nm 196 nm 313° / 310° -

Altitude Profile

Advertisement - Login to hide

Weather


0- 5 10 15 20 25 30 35+ Temperature / ° C

Clouds and Precipitation
Forecast for 2017-12-15 00:00 UTC. Updated 2 hours ago

Ground ~20,000 ft ~40,000 ft Winds

EGBB

Details ICAO EGBB (BHX)
Name Birmingham
Region United Kingdom
Timezone Europe/London (UTC+0.0)
Stats Elevation 327 ft / 100 m (AMSL)
Location 52.455966° -1.750378°
Runways 1
Magnetic Variation 1.140° W

METAR

EGBB 142220Z 21006KT 180V250 9999 SCT040 03/01 Q0988

Decode

TAF

TAF AMD EGBB 142230Z 1422/1518 21008KT 9999 FEW025 BECMG 1422/1424 27010KT TEMPO 1422/1506 27015G25KT 6000 SHRA BKN012 PROB30 TEMPO 1501/1506 3000 RASN BKN005 BECMG 1503/1506 33010KT PROB30 TEMPO 1509/1518 34015G25KT

Decode

Departure Runways

ID Width Length Bearing (true) Bearing (mag) Surface Threshold Offset Overrun Length
15 151 ft / 46 m 8,477 ft / 2,584 m 145.87° 147.01° Asphalt 925 ft / 282 m 0 ft / 0 m
33 151 ft / 46 m 8,477 ft / 2,584 m 325.89° 327.03° Asphalt 958 ft / 292 m 0 ft / 0 m

EGAC

Details ICAO EGAC (BHD)
Name Belfast City
Region United Kingdom
Timezone Europe/London (UTC+0.0)
Stats Elevation 15 ft / 5 m (AMSL)
Location 54.618108° -5.872575°
Runways 1
Magnetic Variation 3.090° W

METAR

EGAC 142220Z AUTO 29015G25KT 9000 -RA BKN028/// 06/05 Q0987

Decode

TAF

Not found

Destination Runways

ID Width Length Bearing (true) Bearing (mag) Surface Threshold Offset Overrun Length
04 148 ft / 45 m 6,009 ft / 1,832 m 34.93° 38.02° Asphalt 302 ft / 92 m 0 ft / 0 m
22 148 ft / 45 m 6,009 ft / 1,832 m 214.94° 218.03° Asphalt 0 ft / 0 m 0 ft / 0 m

Approach Navaids

Runway Type Ident Frequency Range Bearing (true) Bearing (mag) Slope Elevation
04 Localiser HBD 108.10 MHz 18 nm / 33 km 34.92° 38.01° - 15 ft / 5 m (AMSL)
04 DME HBD 108.10 MHz 18 nm / 33 km - - - 30 ft / 9 m (AMSL)
22 Localiser IBFH 108.10 MHz 18 nm / 33 km 214.69° 217.78° - 15 ft / 5 m (AMSL)
22 Glidescope IBFH 108.10 MHz 10 nm / 19 km 214.94° 218.03° 3.00° 50 ft / 15 m (AMSL)
22 DME IBFH 108.10 MHz 18 nm / 33 km - - - 30 ft / 9 m (AMSL)

Popular Alternatives